createdAt,value
2022-11-15T00:00:33.195Z,100778.69
2022-11-15T00:03:32.151Z,100775.81
2022-11-15T00:06:30.929Z,100789.25
2022-11-15T00:09:48.942Z,100799.56
2022-11-15T00:12:49.940Z,100807.00
2022-11-15T00:15:48.622Z,100816.09
2022-11-15T00:19:06.879Z,100822.59
2022-11-15T00:22:05.784Z,100830.75
2022-11-15T00:25:07.836Z,100846.09
2022-11-15T00:28:08.987Z,100858.91
2022-11-15T00:31:11.504Z,100865.28
2022-11-15T00:34:30.591Z,100866.34
2022-11-15T00:37:29.635Z,100869.94
2022-11-15T00:40:30.831Z,100877.25
2022-11-15T00:43:29.646Z,100876.31
2022-11-15T00:46:38.923Z,100907.22
2022-11-15T00:49:37.039Z,100890.22
2022-11-15T00:52:37.111Z,100895.25
2022-11-15T00:55:35.073Z,100896.69
2022-11-15T00:58:34.180Z,100902.69
2022-11-15T01:01:34.145Z,100898.84
2022-11-15T01:04:33.681Z,100888.22
2022-11-15T01:07:32.865Z,100874.41
2022-11-15T01:10:33.760Z,100858.34
2022-11-15T01:13:35.882Z,100826.59
2022-11-15T01:16:34.743Z,100809.66
2022-11-15T01:19:52.708Z,100795.94
2022-11-15T01:22:52.056Z,100788.38
2022-11-15T01:25:52.788Z,100765.31
2022-11-15T01:29:10.525Z,100758.69
2022-11-15T01:32:11.736Z,100738.75
2022-11-15T01:35:10.394Z,100724.16
2022-11-15T01:38:11.159Z,100707.66
2022-11-15T01:41:17.518Z,100700.22
2022-11-15T01:44:48.963Z,100688.41
2022-11-15T01:47:51.088Z,100680.78
2022-11-15T01:50:50.726Z,100677.34
2022-11-15T01:53:52.035Z,100676.38
2022-11-15T01:56:53.223Z,100668.63
2022-11-15T01:59:51.871Z,100666.44
2022-11-15T02:02:52.841Z,100662.53
2022-11-15T02:05:52.302Z,100675.50
2022-11-15T02:08:51.199Z,100674.13
2022-11-15T02:11:49.701Z,100661.59
2022-11-15T02:14:51.316Z,100659.41
2022-11-15T02:18:11.880Z,100665.63
2022-11-15T02:21:28.211Z,100704.81
2022-11-15T02:24:53.021Z,100670.84
2022-11-15T02:28:18.063Z,100682.69
2022-11-15T02:31:21.480Z,100698.41
2022-11-15T02:34:27.210Z,100708.84
2022-11-15T02:37:29.430Z,100717.03
2022-11-15T02:40:36.591Z,100736.84
2022-11-15T02:44:01.371Z,100739.06
2022-11-15T02:47:17.074Z,100748.63
2022-11-15T02:50:19.482Z,100760.41
2022-11-15T02:53:18.316Z,100744.47
2022-11-15T02:56:17.371Z,100746.25
2022-11-15T02:59:40.324Z,100733.81
2022-11-15T03:03:00.929Z,100701.34
2022-11-15T03:06:06.236Z,100665.31
2022-11-15T03:09:07.561Z,100621.53
2022-11-15T03:12:10.605Z,100583.81
2022-11-15T03:15:12.612Z,100527.78
2022-11-15T03:18:15.343Z,100471.19
2022-11-15T03:21:18.020Z,100405.78
2022-11-15T03:24:20.873Z,100368.28
2022-11-15T03:27:27.725Z,100319.31
2022-11-15T03:30:26.500Z,100283.00
2022-11-15T03:33:27.992Z,100248.47
2022-11-15T03:36:29.016Z,100212.28
2022-11-15T03:39:28.508Z,100192.84
2022-11-15T03:42:32.656Z,100161.66
2022-11-15T03:45:35.747Z,100145.41
2022-11-15T03:48:39.898Z,100123.97
2022-11-15T03:51:38.702Z,100106.56
2022-11-15T03:54:49.712Z,100088.63
2022-11-15T03:57:51.318Z,100089.09
2022-11-15T04:00:50.185Z,100083.94
2022-11-15T04:03:52.072Z,100067.81
2022-11-15T04:06:52.375Z,100057.53
2022-11-15T04:10:06.372Z,100046.06
2022-11-15T04:13:05.431Z,100025.94
2022-11-15T04:16:04.484Z,100010.81
2022-11-15T04:19:42.497Z,99995.88
2022-11-15T04:22:58.267Z,99987.19
2022-11-15T04:25:58.573Z,99970.22
2022-11-15T04:29:10.291Z,99960.78
2022-11-15T04:32:10.172Z,99952.16
2022-11-15T04:35:09.870Z,99947.31
2022-11-15T04:38:12.313Z,99942.00
2022-11-15T04:41:13.552Z,99938.69
2022-11-15T04:44:12.215Z,99924.63
2022-11-15T04:47:11.182Z,99916.13
2022-11-15T04:50:13.557Z,99907.03
2022-11-15T04:53:14.388Z,99913.53
2022-11-15T04:56:15.195Z,99902.53
2022-11-15T04:59:15.598Z,99897.09
2022-11-15T05:02:16.332Z,99890.31
2022-11-15T05:05:15.933Z,99893.63
2022-11-15T05:08:34.996Z,99887.66
2022-11-15T05:11:33.712Z,99886.50
2022-11-15T05:14:32.736Z,99877.69
2022-11-15T05:17:31.668Z,99874.56
2022-11-15T05:20:32.728Z,99875.38
2022-11-15T05:23:33.534Z,99881.34
2022-11-15T05:26:32.029Z,99874.72
2022-11-15T05:29:30.841Z,99865.75
2022-11-15T05:32:30.158Z,99869.59
2022-11-15T05:35:33.511Z,99862.28
2022-11-15T05:38:34.943Z,99871.59
2022-11-15T05:41:36.172Z,99868.75
2022-11-15T05:44:36.125Z,99871.59
2022-11-15T05:47:35.496Z,99876.09
2022-11-15T05:50:35.648Z,99881.41
2022-11-15T05:53:37.142Z,99894.84
2022-11-15T05:56:36.406Z,99896.00
2022-11-15T05:59:35.652Z,99898.34
2022-11-15T06:02:34.459Z,99903.19
2022-11-15T06:05:35.394Z,99906.34
2022-11-15T06:08:33.971Z,99908.53
2022-11-15T06:11:32.996Z,99919.63
2022-11-15T06:14:32.067Z,99923.31
2022-11-15T06:17:31.111Z,99924.28
2022-11-15T06:20:31.098Z,99941.91
2022-11-15T06:23:33.987Z,99956.00
2022-11-15T06:27:25.583Z,99979.91
2022-11-15T06:30:24.969Z,99996.66
2022-11-15T06:33:24.997Z,100015.91
2022-11-15T06:36:23.324Z,100026.03
2022-11-15T06:39:23.881Z,100039.47
2022-11-15T06:42:23.989Z,100058.72
2022-11-15T06:45:23.563Z,100079.31
2022-11-15T06:48:25.491Z,100099.56
2022-11-15T06:51:37.688Z,100114.81
2022-11-15T06:54:38.301Z,100136.50
2022-11-15T06:57:35.650Z,100149.94
2022-11-15T07:00:35.443Z,100177.84
2022-11-15T07:03:36.177Z,100183.47
2022-11-15T07:06:35.515Z,100195.72
2022-11-15T07:09:50.900Z,100214.31
2022-11-15T07:12:50.895Z,100218.94
2022-11-15T07:15:51.719Z,100232.22
2022-11-15T07:18:51.413Z,100250.63
2022-11-15T07:22:02.240Z,100258.44
2022-11-15T07:25:00.795Z,100266.09
2022-11-15T07:28:00.709Z,100265.63
2022-11-15T07:30:58.848Z,100269.13
2022-11-15T07:34:00.972Z,100274.81
2022-11-15T07:37:02.047Z,100271.97
2022-11-15T07:40:00.620Z,100271.66
2022-11-15T07:43:18.846Z,100271.00
2022-11-15T07:46:17.903Z,100256.72
2022-11-15T07:49:16.934Z,100237.81
2022-11-15T07:52:15.944Z,100231.34
2022-11-15T07:55:15.153Z,100217.06
2022-11-15T07:58:15.959Z,100208.94
2022-11-15T08:01:14.585Z,100201.63
2022-11-15T08:04:13.582Z,100184.41
2022-11-15T08:07:12.539Z,100163.66
2022-11-15T08:10:37.737Z,100157.16
2022-11-15T08:13:41.348Z,100142.25
2022-11-15T08:16:39.940Z,100129.28
2022-11-15T08:19:39.012Z,100111.53
2022-11-15T08:22:40.000Z,100104.00
2022-11-15T08:25:39.238Z,100092.56
2022-11-15T08:28:39.784Z,100068.91
2022-11-15T08:31:40.197Z,100057.28
2022-11-15T08:34:37.627Z,100040.97
2022-11-15T08:37:36.455Z,100029.47
2022-11-15T08:40:35.205Z,100023.09
2022-11-15T08:43:34.911Z,99985.84
2022-11-15T08:46:33.675Z,99988.09
2022-11-15T08:49:32.224Z,100053.69
2022-11-15T08:52:31.250Z,100172.44
2022-11-15T08:55:32.257Z,100161.88
2022-11-15T08:58:31.199Z,100151.97
2022-11-15T09:01:29.936Z,100148.88
2022-11-15T09:04:31.219Z,100153.16
2022-11-15T09:07:30.857Z,100136.09
2022-11-15T09:10:32.118Z,100131.75
2022-11-15T09:13:44.624Z,100128.72
2022-11-15T09:16:45.074Z,100137.63
2022-11-15T09:19:43.713Z,100127.94
2022-11-15T09:22:44.670Z,100125.91
2022-11-15T09:25:43.458Z,100124.63
2022-11-15T09:28:43.113Z,100113.59
2022-11-15T09:31:43.641Z,100106.25
2022-11-15T09:34:41.955Z,100107.53
2022-11-15T09:37:40.928Z,100116.53
2022-11-15T09:40:41.964Z,100124.16
2022-11-15T09:43:44.894Z,100118.47
2022-11-15T09:46:52.598Z,100126.78
2022-11-15T09:49:57.962Z,100136.06
2022-11-15T09:52:46.974Z,100132.03
2022-11-15T09:55:34.969Z,100143.97
2022-11-15T09:58:20.958Z,100143.66
2022-11-15T10:01:02.610Z,100149.44
2022-11-15T10:03:43.494Z,100147.91
2022-11-15T10:06:42.609Z,100157.84
2022-11-15T10:09:26.644Z,100159.41
2022-11-15T10:12:06.663Z,100165.56
2022-11-15T10:14:53.205Z,100169.19
2022-11-15T10:17:57.146Z,100177.19
2022-11-15T10:20:49.351Z,100176.81
2022-11-15T10:23:31.827Z,100179.91
2022-11-15T10:26:15.705Z,100181.13
2022-11-15T10:29:00.315Z,100183.34
2022-11-15T10:31:42.407Z,100191.16
2022-11-15T10:34:24.116Z,100192.09
2022-11-15T10:37:03.880Z,100191.72
2022-11-15T10:39:45.902Z,100195.03
2022-11-15T10:42:30.184Z,100202.66
2022-11-15T10:45:25.154Z,100198.09
2022-11-15T10:48:26.222Z,100196.97
2022-11-15T10:51:21.895Z,100203.25
2022-11-15T10:54:04.075Z,100214.97
2022-11-15T10:56:44.941Z,100213.56
2022-11-15T10:59:27.795Z,100214.00
2022-11-15T11:02:36.177Z,100231.56
2022-11-15T11:05:41.727Z,100218.22
2022-11-15T11:08:25.767Z,100226.31
2022-11-15T11:11:07.971Z,100238.66
2022-11-15T11:13:47.793Z,100230.81
2022-11-15T11:16:44.758Z,100236.06
2022-11-15T11:19:50.864Z,100231.69
2022-11-15T11:22:37.207Z,100235.81
2022-11-15T11:25:25.862Z,100237.97
2022-11-15T11:28:19.757Z,100239.19
2022-11-15T11:31:12.887Z,100243.72
2022-11-15T11:34:03.457Z,100237.28
2022-11-15T11:36:50.484Z,100236.84
2022-11-15T11:39:39.874Z,100239.06
2022-11-15T11:42:33.473Z,100236.63
2022-11-15T11:45:18.377Z,100236.19
2022-11-15T11:48:05.934Z,100246.56
2022-11-15T11:50:46.521Z,100244.19
2022-11-15T11:53:30.772Z,100243.66
2022-11-15T11:56:18.680Z,100245.50
2022-11-15T11:59:03.006Z,100253.00
2022-11-15T12:01:46.401Z,100256.34
2022-11-15T12:04:31.945Z,100241.56
2022-11-15T12:07:17.474Z,100244.09
2022-11-15T12:10:02.379Z,100242.81
2022-11-15T12:12:47.780Z,100243.41
2022-11-15T12:15:32.346Z,100243.47
2022-11-15T12:18:14.893Z,100239.56
2022-11-15T12:20:57.931Z,100230.75
2022-11-15T12:23:43.216Z,100233.34
2022-11-15T12:26:27.015Z,100239.91
2022-11-15T12:29:11.604Z,100241.47
2022-11-15T12:32:04.653Z,100237.28
2022-11-15T12:34:46.882Z,100239.41
2022-11-15T12:37:57.085Z,100230.28
2022-11-15T12:40:39.035Z,100224.16
2022-11-15T12:43:41.906Z,100222.13
2022-11-15T12:47:01.096Z,100220.91
2022-11-15T12:49:47.218Z,100224.66
2022-11-15T12:52:27.995Z,100223.66
2022-11-15T12:55:34.783Z,100232.84
2022-11-15T12:58:41.705Z,100226.84
2022-11-15T13:01:56.954Z,100229.03
2022-11-15T13:04:36.861Z,100225.78
2022-11-15T13:07:55.056Z,100222.44
2022-11-15T13:10:48.297Z,100217.19
2022-11-15T13:13:46.324Z,100208.63
2022-11-15T13:16:26.647Z,100210.97
2022-11-15T13:19:06.947Z,100206.44
2022-11-15T13:22:08.995Z,100197.00
2022-11-15T13:24:48.866Z,100193.44
2022-11-15T13:27:28.907Z,100183.78
2022-11-15T13:30:16.698Z,100189.16
2022-11-15T13:32:56.810Z,100194.59
2022-11-15T13:35:41.073Z,100185.59
2022-11-15T13:38:28.579Z,100176.34
2022-11-15T13:41:19.319Z,100167.81
2022-11-15T13:43:59.188Z,100168.09
2022-11-15T13:46:38.101Z,100172.97
2022-11-15T13:49:17.281Z,100176.22
2022-11-15T13:51:58.214Z,100175.53
2022-11-15T13:54:45.313Z,100172.50
2022-11-15T13:57:26.637Z,100170.22
2022-11-15T14:00:25.056Z,100160.84
2022-11-15T14:03:16.101Z,100155.78
2022-11-15T14:06:08.373Z,100158.34
2022-11-15T14:09:34.776Z,100152.59
2022-11-15T14:12:31.721Z,100149.63
2022-11-15T14:15:28.270Z,100158.28
2022-11-15T14:18:39.550Z,100151.78
2022-11-15T14:21:21.766Z,100160.91
2022-11-15T14:24:19.593Z,100149.28
2022-11-15T14:27:18.450Z,100144.59
2022-11-15T14:29:56.817Z,100144.59
2022-11-15T14:32:45.639Z,100142.69
2022-11-15T14:35:26.080Z,100133.28
2022-11-15T14:38:05.486Z,100132.63
2022-11-15T14:40:44.081Z,100123.91
2022-11-15T14:43:23.922Z,100119.78
2022-11-15T14:46:03.338Z,100116.53
2022-11-15T14:48:43.009Z,100116.09
2022-11-15T14:51:23.994Z,100120.22
2022-11-15T14:54:05.448Z,100112.41
2022-11-15T14:56:45.754Z,100118.38
2022-11-15T14:59:25.576Z,100113.50
2022-11-15T15:02:04.117Z,100102.81
2022-11-15T15:04:47.812Z,100101.41
2022-11-15T15:07:29.321Z,100087.97
2022-11-15T15:10:39.412Z,100091.47
2022-11-15T15:13:24.558Z,100090.88
2022-11-15T15:16:05.201Z,100091.91
2022-11-15T15:18:45.579Z,100079.19
2022-11-15T15:21:33.726Z,100074.13
2022-11-15T15:34:41.205Z,100069.22
2022-11-15T15:37:24.861Z,100063.75
2022-11-15T15:40:20.896Z,100052.44
2022-11-15T15:43:02.938Z,100059.16
2022-11-15T15:45:43.239Z,100053.81
2022-11-15T15:48:23.769Z,100052.00
2022-11-15T15:51:13.013Z,100051.81
2022-11-15T15:53:58.084Z,100046.28
2022-11-15T15:56:37.592Z,100045.66
2022-11-15T15:59:17.363Z,100037.47
2022-11-15T16:01:57.163Z,100046.94
2022-11-15T16:04:36.722Z,100048.13
2022-11-15T16:07:24.511Z,100044.47
2022-11-15T16:10:09.455Z,100039.78
2022-11-15T16:12:49.732Z,100044.09
2022-11-15T16:15:42.538Z,100040.47
2022-11-15T16:18:35.893Z,100034.13
2022-11-15T16:21:17.343Z,100034.78
2022-11-15T16:23:56.839Z,100028.44
2022-11-15T16:26:36.909Z,100033.75
2022-11-15T16:29:17.400Z,100026.41
2022-11-15T16:31:58.654Z,100022.38
2022-11-15T16:34:42.741Z,100023.84
2022-11-15T16:37:48.228Z,100019.81
2022-11-15T16:40:30.876Z,100022.16
2022-11-15T16:43:10.668Z,100013.97
2022-11-15T16:45:50.590Z,100018.66
2022-11-15T16:48:30.580Z,100014.25
2022-11-15T16:51:12.776Z,100011.88
2022-11-15T16:53:53.271Z,100016.81
2022-11-15T16:56:47.873Z,100009.13
2022-11-15T16:59:27.647Z,100021.63
2022-11-15T17:02:12.622Z,100021.81
2022-11-15T17:04:53.041Z,100020.81
2022-11-15T17:07:35.175Z,100012.16
2022-11-15T17:10:15.112Z,100011.88
2022-11-15T17:12:56.785Z,100002.69
2022-11-15T17:15:34.885Z,100005.88
2022-11-15T17:18:15.409Z,99990.91
2022-11-15T17:20:55.772Z,99988.63
2022-11-15T17:23:36.617Z,99990.50
2022-11-15T17:26:39.280Z,99990.88
2022-11-15T17:29:22.209Z,99996.75
2022-11-15T17:32:00.969Z,99992.81
2022-11-15T17:34:46.083Z,99987.53
2022-11-15T17:37:30.571Z,99979.50
2022-11-15T17:40:12.737Z,99968.72
2022-11-15T17:42:53.258Z,99966.06
2022-11-15T17:45:37.444Z,99963.31
2022-11-15T17:48:31.879Z,99961.66
2022-11-15T17:51:32.627Z,99954.50
2022-11-15T17:54:13.201Z,99947.19
2022-11-15T17:56:56.764Z,99946.22
2022-11-15T17:59:36.809Z,99935.59
2022-11-15T18:02:16.695Z,99939.97
2022-11-15T18:04:56.430Z,99931.16
2022-11-15T18:07:36.276Z,99929.19
2022-11-15T18:10:18.287Z,99913.13
2022-11-15T18:12:59.877Z,99906.13
2022-11-15T18:15:40.457Z,99904.84
2022-11-15T18:18:23.292Z,99891.53
2022-11-15T18:21:06.647Z,99886.25
2022-11-15T18:24:01.247Z,99866.63
2022-11-15T18:26:43.363Z,99862.03
2022-11-15T18:29:26.383Z,99858.56
2022-11-15T18:32:11.286Z,99849.13
2022-11-15T18:34:52.031Z,99847.47
2022-11-15T18:37:33.734Z,99836.56
2022-11-15T18:40:14.495Z,99844.91
2022-11-15T18:42:56.734Z,99835.91
2022-11-15T18:45:40.029Z,99828.34
2022-11-15T18:48:21.078Z,99817.69
2022-11-15T18:51:43.273Z,99812.38
2022-11-15T18:54:31.564Z,99807.41
2022-11-15T18:57:10.339Z,99806.59
2022-11-15T18:59:52.762Z,99795.97
2022-11-15T19:02:32.763Z,99792.66
2022-11-15T19:05:12.913Z,99793.47
2022-11-15T19:07:52.355Z,99788.16
2022-11-15T19:10:35.284Z,99795.97
2022-11-15T19:13:16.234Z,99791.19
2022-11-15T19:15:59.495Z,99790.19
2022-11-15T19:18:41.959Z,99781.19
2022-11-15T19:21:21.393Z,99783.03
2022-11-15T19:24:03.098Z,99780.72
2022-11-15T19:26:44.956Z,99781.38
2022-11-15T19:29:25.191Z,99781.19
2022-11-15T19:32:08.009Z,99777.53
2022-11-15T19:34:48.036Z,99773.03
2022-11-15T19:37:30.791Z,99786.16
2022-11-15T19:40:11.967Z,99782.50
2022-11-15T19:42:54.434Z,99775.53
2022-11-15T19:45:35.259Z,99783.84
2022-11-15T19:48:13.979Z,99772.41
2022-11-15T19:50:56.300Z,99775.53
2022-11-15T19:53:38.050Z,99778.25
2022-11-15T19:56:19.162Z,99775.06
2022-11-15T19:58:59.125Z,99776.72
2022-11-15T20:01:39.384Z,99765.91
2022-11-15T20:04:19.378Z,99765.25
2022-11-15T20:07:02.248Z,99765.78
2022-11-15T20:09:43.573Z,99766.25
2022-11-15T20:12:24.919Z,99767.09
2022-11-15T20:15:04.783Z,99768.91
2022-11-15T20:17:50.308Z,99764.41
2022-11-15T20:20:30.510Z,99765.44
2022-11-15T20:23:10.224Z,99761.94
2022-11-15T20:25:50.023Z,99776.88
2022-11-15T20:28:29.930Z,99775.06
2022-11-15T20:31:10.824Z,99774.88
2022-11-15T20:33:52.668Z,99774.22
2022-11-15T20:36:34.416Z,99781.84
2022-11-15T20:39:13.817Z,99787.16
2022-11-15T20:41:53.671Z,99783.97
2022-11-15T20:44:34.510Z,99790.75
2022-11-15T20:47:13.581Z,99791.41
2022-11-15T20:49:55.823Z,99789.47
2022-11-15T20:52:36.010Z,99786.44
2022-11-15T20:55:16.072Z,99794.41
2022-11-15T20:57:55.785Z,99785.31
2022-11-15T21:00:36.804Z,99776.81
2022-11-15T21:03:16.879Z,99780.84
2022-11-15T21:05:56.662Z,99787.44
2022-11-15T21:08:50.507Z,99783.97
2022-11-15T21:11:49.180Z,99775.97
2022-11-15T21:14:29.939Z,99778.66
2022-11-15T21:17:11.780Z,99777.16
2022-11-15T21:19:51.313Z,99775.34
2022-11-15T21:22:30.778Z,99772.16
2022-11-15T21:25:10.967Z,99773.69
2022-11-15T21:27:50.343Z,99761.22
2022-11-15T21:30:30.273Z,99761.22
2022-11-15T21:33:09.946Z,99758.38
2022-11-15T21:35:49.730Z,99759.38
2022-11-15T21:38:30.776Z,99754.25
2022-11-15T21:41:11.036Z,99749.41
2022-11-15T21:43:50.767Z,99749.41
2022-11-15T21:46:31.539Z,99749.59
2022-11-15T21:49:12.022Z,99752.88
2022-11-15T21:51:51.760Z,99755.72
2022-11-15T21:54:31.684Z,99755.53
2022-11-15T21:57:11.684Z,99754.06
2022-11-15T22:00:08.658Z,99745.44
2022-11-15T22:02:49.305Z,99755.53
2022-11-15T22:05:32.085Z,99748.56
2022-11-15T22:08:11.460Z,99750.59
2022-11-15T22:10:52.560Z,99754.91
2022-11-15T22:13:32.740Z,99754.53
2022-11-15T22:16:12.402Z,99756.38
2022-11-15T22:18:52.746Z,99746.06
2022-11-15T22:21:32.210Z,99748.22
2022-11-15T22:24:12.960Z,99749.22
2022-11-15T22:26:54.410Z,99751.38
2022-11-15T22:29:38.939Z,99742.56
2022-11-15T22:32:19.363Z,99739.91
2022-11-15T22:35:01.208Z,99731.63
2022-11-15T22:37:42.716Z,99728.59
2022-11-15T22:40:23.774Z,99727.94
2022-11-15T22:43:03.666Z,99722.00
2022-11-15T22:45:52.645Z,99716.69
2022-11-15T22:48:34.401Z,99714.84
2022-11-15T22:51:14.031Z,99712.38
2022-11-15T22:53:53.984Z,99717.03
2022-11-15T22:56:33.747Z,99712.44
2022-11-15T22:59:13.439Z,99705.47
2022-11-15T23:01:53.905Z,99696.50
2022-11-15T23:04:36.964Z,99691.53
2022-11-15T23:07:17.734Z,99699.66
2022-11-15T23:10:16.216Z,99688.75
2022-11-15T23:13:13.799Z,99696.53
2022-11-15T23:16:20.028Z,99687.28
2022-11-15T23:19:02.732Z,99684.25
2022-11-15T23:22:01.246Z,99687.63
2022-11-15T23:24:41.322Z,99684.19
2022-11-15T23:27:21.198Z,99683.38
2022-11-15T23:30:16.936Z,99685.53
2022-11-15T23:33:15.171Z,99680.53
2022-11-15T23:35:56.333Z,99673.75
2022-11-15T23:38:49.008Z,99669.63
2022-11-15T23:41:28.726Z,99674.41
2022-11-15T23:44:08.469Z,99660.28
2022-11-15T23:46:48.398Z,99666.97
2022-11-15T23:49:28.214Z,99666.16
2022-11-15T23:52:08.065Z,99665.31
2022-11-15T23:54:49.848Z,99660.84
2022-11-15T23:57:29.188Z,99647.72
